sensor_id;sensor_type;location;lat;lon;timestamp;pressure;altitude;pressure_sealevel;temperature;humidity
40490;BME280;26196;52.302;10.572;2023-05-29T00:00:55;101187.44;;;20.57;38.65
40490;BME280;26196;52.302;10.572;2023-05-29T00:04:56;101188.56;;;20.52;38.89
40490;BME280;26196;52.302;10.572;2023-05-29T00:08:56;101193.09;;;20.50;38.54
40490;BME280;26196;52.302;10.572;2023-05-29T00:12:57;101197.66;;;20.48;38.94
40490;BME280;26196;52.302;10.572;2023-05-29T00:16:58;101195.16;;;20.45;38.96
40490;BME280;26196;52.302;10.572;2023-05-29T00:20:58;101197.75;;;20.47;39.02
40490;BME280;26196;52.302;10.572;2023-05-29T00:24:58;101199.72;;;20.43;38.96
40490;BME280;26196;52.302;10.572;2023-05-29T00:28:58;101212.34;;;20.40;39.01
40490;BME280;26196;52.302;10.572;2023-05-29T00:32:59;101224.00;;;20.37;38.45
40490;BME280;26196;52.302;10.572;2023-05-29T00:36:59;101220.69;;;20.33;38.40
40490;BME280;26196;52.302;10.572;2023-05-29T00:41:00;101216.66;;;20.26;38.63
40490;BME280;26196;52.302;10.572;2023-05-29T00:45:00;101226.25;;;20.29;38.59
40490;BME280;26196;52.302;10.572;2023-05-29T00:49:01;101232.50;;;20.28;38.37
40490;BME280;26196;52.302;10.572;2023-05-29T00:53:02;101232.06;;;20.20;38.39
40490;BME280;26196;52.302;10.572;2023-05-29T00:57:04;101225.22;;;20.16;38.48
40490;BME280;26196;52.302;10.572;2023-05-29T01:01:04;101230.63;;;20.14;38.51
40490;BME280;26196;52.302;10.572;2023-05-29T01:05:06;101239.63;;;20.11;38.35
40490;BME280;26196;52.302;10.572;2023-05-29T01:09:06;101248.53;;;20.10;38.29
40490;BME280;26196;52.302;10.572;2023-05-29T01:17:17;101258.22;;;20.11;38.42
40490;BME280;26196;52.302;10.572;2023-05-29T01:21:26;101249.63;;;20.06;38.42
40490;BME280;26196;52.302;10.572;2023-05-29T01:25:58;101255.19;;;20.02;38.66
40490;BME280;26196;52.302;10.572;2023-05-29T01:30:06;101251.78;;;20.00;38.34
40490;BME280;26196;52.302;10.572;2023-05-29T01:34:08;101260.94;;;19.94;38.58
40490;BME280;26196;52.302;10.572;2023-05-29T01:38:08;101262.06;;;19.90;38.49
40490;BME280;26196;52.302;10.572;2023-05-29T01:42:08;101269.25;;;19.88;38.34
40490;BME280;26196;52.302;10.572;2023-05-29T01:46:10;101270.38;;;19.84;38.35
40490;BME280;26196;52.302;10.572;2023-05-29T01:50:13;101269.59;;;19.82;38.27
40490;BME280;26196;52.302;10.572;2023-05-29T01:54:15;101264.59;;;19.76;38.11
40490;BME280;26196;52.302;10.572;2023-05-29T01:58:16;101279.78;;;19.74;38.37
40490;BME280;26196;52.302;10.572;2023-05-29T02:02:17;101282.56;;;19.71;38.40
40490;BME280;26196;52.302;10.572;2023-05-29T02:06:18;101283.59;;;19.68;38.37
40490;BME280;26196;52.302;10.572;2023-05-29T02:10:18;101279.34;;;19.64;37.92
40490;BME280;26196;52.302;10.572;2023-05-29T02:14:19;101284.72;;;19.62;38.03
40490;BME280;26196;52.302;10.572;2023-05-29T02:18:19;101279.94;;;19.53;38.21
40490;BME280;26196;52.302;10.572;2023-05-29T02:22:20;101293.09;;;19.55;37.97
40490;BME280;26196;52.302;10.572;2023-05-29T02:26:20;101291.34;;;19.55;37.86
40490;BME280;26196;52.302;10.572;2023-05-29T02:30:20;101290.38;;;19.56;37.75
40490;BME280;26196;52.302;10.572;2023-05-29T02:34:21;101294.91;;;19.54;37.24
40490;BME280;26196;52.302;10.572;2023-05-29T02:38:25;101288.13;;;19.49;37.44
40490;BME280;26196;52.302;10.572;2023-05-29T02:42:25;101295.25;;;19.48;37.48
40490;BME280;26196;52.302;10.572;2023-05-29T02:46:25;101291.19;;;19.41;37.57
40490;BME280;26196;52.302;10.572;2023-05-29T02:50:26;101296.47;;;19.41;37.81
40490;BME280;26196;52.302;10.572;2023-05-29T02:54:26;101302.81;;;19.38;37.89
40490;BME280;26196;52.302;10.572;2023-05-29T02:58:27;101301.16;;;19.36;38.21
40490;BME280;26196;52.302;10.572;2023-05-29T03:02:27;101297.66;;;19.35;37.80
40490;BME280;26196;52.302;10.572;2023-05-29T03:06:28;101311.16;;;19.31;37.72
40490;BME280;26196;52.302;10.572;2023-05-29T03:10:28;101299.00;;;19.27;37.95
40490;BME280;26196;52.302;10.572;2023-05-29T03:14:28;101294.00;;;19.20;38.23
40490;BME280;26196;52.302;10.572;2023-05-29T03:18:29;101303.69;;;19.21;37.98
40490;BME280;26196;52.302;10.572;2023-05-29T03:22:29;101300.47;;;19.15;37.87
40490;BME280;26196;52.302;10.572;2023-05-29T03:26:30;101305.09;;;19.11;38.35
40490;BME280;26196;52.302;10.572;2023-05-29T03:30:30;101307.75;;;19.11;38.71
40490;BME280;26196;52.302;10.572;2023-05-29T03:34:30;101306.22;;;19.06;38.59
40490;BME280;26196;52.302;10.572;2023-05-29T03:38:31;101308.97;;;19.04;38.39
40490;BME280;26196;52.302;10.572;2023-05-29T03:42:33;101292.59;;;18.96;38.27
40490;BME280;26196;52.302;10.572;2023-05-29T03:46:33;101304.03;;;18.96;38.36
40490;BME280;26196;52.302;10.572;2023-05-29T03:50:34;101310.31;;;18.95;38.25
40490;BME280;26196;52.302;10.572;2023-05-29T03:54:34;101323.63;;;18.94;38.58
40490;BME280;26196;52.302;10.572;2023-05-29T03:58:34;101316.09;;;18.85;38.79
40490;BME280;26196;52.302;10.572;2023-05-29T04:02:39;101327.59;;;18.85;38.55
40490;BME280;26196;52.302;10.572;2023-05-29T04:06:40;101326.66;;;18.86;38.52
40490;BME280;26196;52.302;10.572;2023-05-29T04:10:40;101318.06;;;18.81;38.73
40490;BME280;26196;52.302;10.572;2023-05-29T04:14:40;101321.56;;;18.82;38.94
40490;BME280;26196;52.302;10.572;2023-05-29T04:18:41;101333.91;;;18.83;38.87
40490;BME280;26196;52.302;10.572;2023-05-29T04:22:42;101330.63;;;18.77;39.09
40490;BME280;26196;52.302;10.572;2023-05-29T04:26:42;101336.84;;;18.76;38.92
40490;BME280;26196;52.302;10.572;2023-05-29T04:30:43;101342.00;;;18.79;38.94
40490;BME280;26196;52.302;10.572;2023-05-29T04:34:43;101330.09;;;18.69;39.19
40490;BME280;26196;52.302;10.572;2023-05-29T04:38:44;101342.25;;;18.73;39.04
40490;BME280;26196;52.302;10.572;2023-05-29T04:42:45;101333.81;;;18.65;38.85
40490;BME280;26196;52.302;10.572;2023-05-29T04:46:45;101344.13;;;18.71;39.36
40490;BME280;26196;52.302;10.572;2023-05-29T04:50:47;101345.28;;;18.66;39.65
40490;BME280;26196;52.302;10.572;2023-05-29T04:54:48;101344.38;;;18.67;39.33
40490;BME280;26196;52.302;10.572;2023-05-29T04:58:48;101358.47;;;18.67;39.76
40490;BME280;26196;52.302;10.572;2023-05-29T05:02:49;101359.47;;;18.65;39.70
40490;BME280;26196;52.302;10.572;2023-05-29T05:06:49;101357.84;;;18.62;39.60
40490;BME280;26196;52.302;10.572;2023-05-29T05:10:50;101360.53;;;18.61;39.58
40490;BME280;26196;52.302;10.572;2023-05-29T05:14:50;101352.38;;;18.65;39.94
40490;BME280;26196;52.302;10.572;2023-05-29T05:18:50;101343.47;;;18.66;40.15
40490;BME280;26196;52.302;10.572;2023-05-29T05:22:51;101346.44;;;18.60;40.26
40490;BME280;26196;52.302;10.572;2023-05-29T05:26:51;101350.69;;;18.64;40.16
40490;BME280;26196;52.302;10.572;2023-05-29T05:30:52;101343.63;;;18.63;40.38
40490;BME280;26196;52.302;10.572;2023-05-29T05:34:52;101339.28;;;18.62;40.23
40490;BME280;26196;52.302;10.572;2023-05-29T05:38:52;101342.13;;;18.57;40.88
40490;BME280;26196;52.302;10.572;2023-05-29T05:42:53;101351.88;;;18.57;40.77
40490;BME280;26196;52.302;10.572;2023-05-29T05:46:53;101347.66;;;18.53;40.95
40490;BME280;26196;52.302;10.572;2023-05-29T05:50:54;101355.44;;;18.56;40.75
40490;BME280;26196;52.302;10.572;2023-05-29T05:54:55;101351.09;;;18.55;40.96
40490;BME280;26196;52.302;10.572;2023-05-29T05:58:55;101357.91;;;18.61;40.71
40490;BME280;26196;52.302;10.572;2023-05-29T06:02:55;101360.63;;;18.59;41.03
40490;BME280;26196;52.302;10.572;2023-05-29T06:06:56;101358.91;;;18.58;40.84
40490;BME280;26196;52.302;10.572;2023-05-29T06:10:57;101368.66;;;18.57;41.40
40490;BME280;26196;52.302;10.572;2023-05-29T06:14:57;101376.59;;;18.57;41.15
40490;BME280;26196;52.302;10.572;2023-05-29T06:18:57;101374.00;;;18.56;41.40
40490;BME280;26196;52.302;10.572;2023-05-29T06:22:58;101374.00;;;18.56;41.58
40490;BME280;26196;52.302;10.572;2023-05-29T06:26:58;101385.50;;;18.56;41.53
40490;BME280;26196;52.302;10.572;2023-05-29T06:30:58;101380.25;;;18.55;41.64
40490;BME280;26196;52.302;10.572;2023-05-29T06:34:58;101386.56;;;18.52;42.01
40490;BME280;26196;52.302;10.572;2023-05-29T06:38:59;101384.84;;;18.51;42.03
40490;BME280;26196;52.302;10.572;2023-05-29T06:43:00;101383.84;;;18.54;42.39
40490;BME280;26196;52.302;10.572;2023-05-29T06:47:00;101386.41;;;18.55;42.50
40490;BME280;26196;52.302;10.572;2023-05-29T06:51:01;101398.75;;;18.56;42.38
40490;BME280;26196;52.302;10.572;2023-05-29T06:55:08;101397.03;;;18.55;42.62
40490;BME280;26196;52.302;10.572;2023-05-29T06:59:09;101394.22;;;18.58;42.61
40490;BME280;26196;52.302;10.572;2023-05-29T07:03:09;101394.31;;;18.57;42.87
40490;BME280;26196;52.302;10.572;2023-05-29T07:07:09;101387.50;;;18.51;43.07
40490;BME280;26196;52.302;10.572;2023-05-29T07:11:10;101408.38;;;18.59;43.12
40490;BME280;26196;52.302;10.572;2023-05-29T07:15:10;101420.63;;;18.62;43.23
40490;BME280;26196;52.302;10.572;2023-05-29T07:19:10;101425.03;;;18.61;43.12
40490;BME280;26196;52.302;10.572;2023-05-29T07:23:13;101433.00;;;18.61;43.47
40490;BME280;26196;52.302;10.572;2023-05-29T07:27:14;101425.03;;;18.61;43.95
40490;BME280;26196;52.302;10.572;2023-05-29T07:31:14;101433.00;;;18.61;44.03
40490;BME280;26196;52.302;10.572;2023-05-29T07:35:14;101420.69;;;18.60;44.04
40490;BME280;26196;52.302;10.572;2023-05-29T07:39:15;101417.81;;;18.65;43.85
40490;BME280;26196;52.302;10.572;2023-05-29T07:43:15;101421.31;;;18.65;44.22
40490;BME280;26196;52.302;10.572;2023-05-29T07:47:16;101426.28;;;18.73;44.19
40490;BME280;26196;52.302;10.572;2023-05-29T07:51:16;101425.56;;;18.69;44.48
40490;BME280;26196;52.302;10.572;2023-05-29T07:55:17;101417.53;;;18.71;44.38
40490;BME280;26196;52.302;10.572;2023-05-29T07:59:18;101410.78;;;18.64;44.85
40490;BME280;26196;52.302;10.572;2023-05-29T08:03:18;101405.34;;;18.67;44.69
40490;BME280;26196;52.302;10.572;2023-05-29T08:07:19;101421.72;;;18.76;44.05
40490;BME280;26196;52.302;10.572;2023-05-29T08:11:19;101423.44;;;18.77;44.19
40490;BME280;26196;52.302;10.572;2023-05-29T08:15:21;101430.31;;;18.82;44.40
40490;BME280;26196;52.302;10.572;2023-05-29T08:19:24;101428.59;;;18.80;44.62
40490;BME280;26196;52.302;10.572;2023-05-29T08:23:24;101421.44;;;18.83;44.97
40490;BME280;26196;52.302;10.572;2023-05-29T08:27:25;101431.09;;;18.84;45.24
40490;BME280;26196;52.302;10.572;2023-05-29T08:31:25;101428.31;;;18.87;44.97
40490;BME280;26196;52.302;10.572;2023-05-29T08:35:25;101431.81;;;18.87;45.11
40490;BME280;26196;52.302;10.572;2023-05-29T08:39:26;101422.09;;;18.88;44.80
40490;BME280;26196;52.302;10.572;2023-05-29T08:43:30;101429.94;;;18.89;45.06
40490;BME280;26196;52.302;10.572;2023-05-29T08:47:34;101427.16;;;18.92;45.22
40490;BME280;26196;52.302;10.572;2023-05-29T08:51:37;101418.91;;;18.98;44.76
40490;BME280;26196;52.302;10.572;2023-05-29T08:55:42;101421.22;;;19.06;44.97
40490;BME280;26196;52.302;10.572;2023-05-29T08:59:44;101418.41;;;19.09;44.82
40490;BME280;26196;52.302;10.572;2023-05-29T09:03:44;101418.41;;;19.09;44.69
40490;BME280;26196;52.302;10.572;2023-05-29T09:07:46;101417.94;;;19.18;44.51
40490;BME280;26196;52.302;10.572;2023-05-29T09:11:47;101417.09;;;19.18;44.39
40490;BME280;26196;52.302;10.572;2023-05-29T09:15:47;101422.00;;;19.26;44.36
40490;BME280;26196;52.302;10.572;2023-05-29T09:19:48;101428.13;;;19.28;44.40
40490;BME280;26196;52.302;10.572;2023-05-29T09:23:51;101433.44;;;19.28;44.18
40490;BME280;26196;52.302;10.572;2023-05-29T09:27:57;101437.63;;;19.32;44.53
40490;BME280;26196;52.302;10.572;2023-05-29T09:31:59;101437.56;;;19.33;44.98
40490;BME280;26196;52.302;10.572;2023-05-29T09:35:59;101442.72;;;19.36;44.64
40490;BME280;26196;52.302;10.572;2023-05-29T09:40:00;101441.72;;;19.39;44.12
40490;BME280;26196;52.302;10.572;2023-05-29T09:44:00;101432.84;;;19.40;44.59
40490;BME280;26196;52.302;10.572;2023-05-29T09:48:01;101423.91;;;19.41;44.52
40490;BME280;26196;52.302;10.572;2023-05-29T09:52:01;101426.63;;;19.39;44.13
40490;BME280;26196;52.302;10.572;2023-05-29T09:56:02;101431.81;;;19.42;44.10
40490;BME280;26196;52.302;10.572;2023-05-29T10:00:04;101417.75;;;19.40;44.00
40490;BME280;26196;52.302;10.572;2023-05-29T10:04:13;101417.38;;;19.48;43.81
40490;BME280;26196;52.302;10.572;2023-05-29T10:08:18;101405.28;;;19.42;43.80
40490;BME280;26196;52.302;10.572;2023-05-29T10:12:20;101414.72;;;19.48;43.82
40490;BME280;26196;52.302;10.572;2023-05-29T10:16:24;101410.31;;;19.47;43.58
40490;BME280;26196;52.302;10.572;2023-05-29T10:20:26;101407.38;;;19.53;43.46
40490;BME280;26196;52.302;10.572;2023-05-29T10:24:27;101417.06;;;19.54;42.98
40490;BME280;26196;52.302;10.572;2023-05-29T10:28:28;101408.25;;;19.54;42.44
40490;BME280;26196;52.302;10.572;2023-05-29T10:41:34;101390.81;;;19.65;43.01
40490;BME280;26196;52.302;10.572;2023-05-29T10:49:49;101386.03;;;19.74;42.97
40490;BME280;26196;52.302;10.572;2023-05-29T10:53:50;101387.72;;;19.75;43.30
40490;BME280;26196;52.302;10.572;2023-05-29T10:57:51;101394.69;;;19.77;43.30
40490;BME280;26196;52.302;10.572;2023-05-29T11:01:51;101387.31;;;19.82;43.63
40490;BME280;26196;52.302;10.572;2023-05-29T11:06:04;101385.53;;;19.83;43.31
40490;BME280;26196;52.302;10.572;2023-05-29T11:10:12;101378.25;;;19.86;43.12
40490;BME280;26196;52.302;10.572;2023-05-29T11:14:15;101383.41;;;19.89;43.68
40490;BME280;26196;52.302;10.572;2023-05-29T11:18:20;101333.72;;;19.57;43.62
40490;BME280;26196;52.302;10.572;2023-05-29T11:22:25;101386.59;;;19.96;43.64
40490;BME280;26196;52.302;10.572;2023-05-29T11:26:27;101383.94;;;19.96;43.89
40490;BME280;26196;52.302;10.572;2023-05-29T11:30:28;101387.22;;;20.01;43.59
40490;BME280;26196;52.302;10.572;2023-05-29T11:34:29;101382.69;;;20.03;43.09
40490;BME280;26196;52.302;10.572;2023-05-29T11:38:31;101377.38;;;20.03;42.63
40490;BME280;26196;52.302;10.572;2023-05-29T11:42:31;101365.16;;;19.99;42.53
40490;BME280;26196;52.302;10.572;2023-05-29T11:46:32;101388.06;;;20.02;42.30
40490;BME280;26196;52.302;10.572;2023-05-29T11:50:33;101394.00;;;20.07;41.67
40490;BME280;26196;52.302;10.572;2023-05-29T11:54:34;101379.06;;;20.04;41.54
40490;BME280;26196;52.302;10.572;2023-05-29T11:58:36;101372.84;;;20.05;41.82
40490;BME280;26196;52.302;10.572;2023-05-29T12:02:36;101373.53;;;20.09;41.39
40490;BME280;26196;52.302;10.572;2023-05-29T12:06:37;101360.16;;;20.10;41.82
40490;BME280;26196;52.302;10.572;2023-05-29T12:10:49;101362.72;;;20.12;42.21
40490;BME280;26196;52.302;10.572;2023-05-29T12:14:50;101357.16;;;20.17;42.70
40490;BME280;26196;52.302;10.572;2023-05-29T12:18:52;101366.72;;;20.21;42.82
40490;BME280;26196;52.302;10.572;2023-05-29T12:22:52;101369.19;;;20.24;43.08
40490;BME280;26196;52.302;10.572;2023-05-29T12:26:53;101370.72;;;20.28;43.16
40490;BME280;26196;52.302;10.572;2023-05-29T12:30:59;101373.69;;;20.39;43.24
40490;BME280;26196;52.302;10.572;2023-05-29T12:34:59;101381.66;;;20.39;43.29
40490;BME280;26196;52.302;10.572;2023-05-29T12:39:05;101368.03;;;20.45;43.32
40490;BME280;26196;52.302;10.572;2023-05-29T12:43:09;101373.34;;;20.45;43.29
40490;BME280;26196;52.302;10.572;2023-05-29T12:47:09;101366.22;;;20.46;43.09
40490;BME280;26196;52.302;10.572;2023-05-29T12:51:09;101370.34;;;20.51;43.31
40490;BME280;26196;52.302;10.572;2023-05-29T12:55:10;101368.16;;;20.60;43.17
40490;BME280;26196;52.302;10.572;2023-05-29T12:59:10;101360.78;;;20.65;43.15
40490;BME280;26196;52.302;10.572;2023-05-29T13:03:11;101368.31;;;20.72;43.04
40490;BME280;26196;52.302;10.572;2023-05-29T13:07:12;101355.59;;;20.77;42.83
40490;BME280;26196;52.302;10.572;2023-05-29T13:11:12;101359.91;;;20.80;42.68
40490;BME280;26196;52.302;10.572;2023-05-29T13:15:13;101358.97;;;20.81;42.69
40490;BME280;26196;52.302;10.572;2023-05-29T13:19:13;101358.53;;;20.89;42.71
40490;BME280;26196;52.302;10.572;2023-05-29T13:23:14;101356.06;;;20.86;42.82
40490;BME280;26196;52.302;10.572;2023-05-29T13:27:14;101353.47;;;20.84;42.87
40490;BME280;26196;52.302;10.572;2023-05-29T13:31:16;101363.00;;;20.88;42.62
40490;BME280;26196;52.302;10.572;2023-05-29T13:35:16;101364.91;;;20.86;42.87
40490;BME280;26196;52.302;10.572;2023-05-29T13:39:16;101350.31;;;20.93;42.74
40490;BME280;26196;52.302;10.572;2023-05-29T13:43:17;101353.53;;;20.98;42.85
40490;BME280;26196;52.302;10.572;2023-05-29T13:47:17;101349.75;;;21.03;42.64
40490;BME280;26196;52.302;10.572;2023-05-29T13:51:18;101346.91;;;21.06;42.76
40490;BME280;26196;52.302;10.572;2023-05-29T13:55:18;101341.25;;;21.12;42.52
40490;BME280;26196;52.302;10.572;2023-05-29T13:59:18;101340.56;;;21.08;42.42
40490;BME280;26196;52.302;10.572;2023-05-29T14:03:19;101345.44;;;21.16;42.34
40490;BME280;26196;52.302;10.572;2023-05-29T14:07:21;101339.19;;;21.17;42.33
40490;BME280;26196;52.302;10.572;2023-05-29T14:11:22;101342.44;;;21.22;42.11
40490;BME280;26196;52.302;10.572;2023-05-29T14:15:22;101343.38;;;21.21;42.24
40490;BME280;26196;52.302;10.572;2023-05-29T14:19:22;101333.38;;;21.25;42.38
40490;BME280;26196;52.302;10.572;2023-05-29T14:23:23;101348.75;;;21.35;41.92
40490;BME280;26196;52.302;10.572;2023-05-29T14:27:23;101345.81;;;21.40;41.66
40490;BME280;26196;52.302;10.572;2023-05-29T14:31:24;101339.13;;;21.49;41.19
40490;BME280;26196;52.302;10.572;2023-05-29T14:35:25;101344.69;;;21.44;41.25
40490;BME280;26196;52.302;10.572;2023-05-29T14:39:25;101334.13;;;21.42;41.33
40490;BME280;26196;52.302;10.572;2023-05-29T14:43:26;101337.38;;;21.48;41.31
40490;BME280;26196;52.302;10.572;2023-05-29T14:47:26;101344.13;;;21.53;40.94
40490;BME280;26196;52.302;10.572;2023-05-29T14:51:27;101333.22;;;21.58;40.93
40490;BME280;26196;52.302;10.572;2023-05-29T14:55:27;101332.63;;;21.53;41.12
40490;BME280;26196;52.302;10.572;2023-05-29T14:59:27;101329.88;;;21.54;41.26
40490;BME280;26196;52.302;10.572;2023-05-29T15:03:28;101324.09;;;21.62;40.88
40490;BME280;26196;52.302;10.572;2023-05-29T15:07:28;101320.75;;;21.58;40.81
40490;BME280;26196;52.302;10.572;2023-05-29T15:11:30;101310.97;;;21.59;40.68
40490;BME280;26196;52.302;10.572;2023-05-29T15:15:33;101306.81;;;21.69;40.56
40490;BME280;26196;52.302;10.572;2023-05-29T15:19:34;101314.88;;;21.68;40.71
40490;BME280;26196;52.302;10.572;2023-05-29T15:23:34;101310.19;;;21.71;40.45
40490;BME280;26196;52.302;10.572;2023-05-29T15:27:35;101283.19;;;21.49;40.77
40490;BME280;26196;52.302;10.572;2023-05-29T15:31:36;101309.47;;;21.69;40.77
40490;BME280;26196;52.302;10.572;2023-05-29T15:35:37;101315.06;;;21.79;40.51
40490;BME280;26196;52.302;10.572;2023-05-29T15:39:42;101306.03;;;21.81;40.42
40490;BME280;26196;52.302;10.572;2023-05-29T15:43:42;101311.16;;;21.84;40.34
40490;BME280;26196;52.302;10.572;2023-05-29T15:47:43;101310.13;;;21.87;39.83
40490;BME280;26196;52.302;10.572;2023-05-29T15:51:43;101309.06;;;21.90;39.56
40490;BME280;26196;52.302;10.572;2023-05-29T15:55:43;101301.84;;;21.92;39.27
40490;BME280;26196;52.302;10.572;2023-05-29T15:59:44;101301.19;;;21.88;39.50
40490;BME280;26196;52.302;10.572;2023-05-29T16:03:44;101307.16;;;21.92;39.32
40490;BME280;26196;52.302;10.572;2023-05-29T16:07:45;101308.34;;;21.88;39.64
40490;BME280;26196;52.302;10.572;2023-05-29T16:11:47;101312.50;;;21.92;39.50
40490;BME280;26196;52.302;10.572;2023-05-29T16:15:48;101307.16;;;21.92;39.59
40490;BME280;26196;52.302;10.572;2023-05-29T16:19:48;101314.22;;;21.93;39.37
40490;BME280;26196;52.302;10.572;2023-05-29T16:23:48;101309.75;;;21.93;39.31
40490;BME280;26196;52.302;10.572;2023-05-29T16:32:06;101315.09;;;21.93;39.90
40490;BME280;26196;52.302;10.572;2023-05-29T16:36:06;101299.75;;;21.82;40.01
40490;BME280;26196;52.302;10.572;2023-05-29T16:40:07;101308.91;;;21.93;40.17
40490;BME280;26196;52.302;10.572;2023-05-29T16:44:08;101301.84;;;21.92;40.20
40490;BME280;26196;52.302;10.572;2023-05-29T16:48:08;101301.00;;;21.91;40.47
40490;BME280;26196;52.302;10.572;2023-05-29T16:52:09;101312.13;;;21.98;40.25
40490;BME280;26196;52.302;10.572;2023-05-29T16:56:09;101313.28;;;21.94;40.23
40490;BME280;26196;52.302;10.572;2023-05-29T17:00:10;101319.09;;;22.00;40.23
40490;BME280;26196;52.302;10.572;2023-05-29T17:04:11;101295.66;;;21.91;40.42
40490;BME280;26196;52.302;10.572;2023-05-29T17:08:12;101313.66;;;22.02;39.90
40490;BME280;26196;52.302;10.572;2023-05-29T17:22:05;101306.81;;;21.98;40.13
40490;BME280;26196;52.302;10.572;2023-05-29T17:26:06;101314.41;;;22.04;40.11
40490;BME280;26196;52.302;10.572;2023-05-29T17:30:07;101306.03;;;21.96;40.21
40490;BME280;26196;52.302;10.572;2023-05-29T17:39:04;101305.00;;;21.98;40.17
40490;BME280;26196;52.302;10.572;2023-05-29T17:43:05;101322.41;;;22.04;40.09
40490;BME280;26196;52.302;10.572;2023-05-29T17:52:02;101325.94;;;22.04;39.66
40490;BME280;26196;52.302;10.572;2023-05-29T18:00:59;101327.75;;;22.04;40.02
40490;BME280;26196;52.302;10.572;2023-05-29T18:05:00;101336.72;;;22.03;39.92
40490;BME280;26196;52.302;10.572;2023-05-29T18:09:01;101337.75;;;22.00;39.62
40490;BME280;26196;52.302;10.572;2023-05-29T18:13:01;101336.72;;;22.03;39.66
40490;BME280;26196;52.302;10.572;2023-05-29T18:17:02;101334.88;;;22.03;39.29
40490;BME280;26196;52.302;10.572;2023-05-29T18:21:02;101341.91;;;22.04;39.30
40490;BME280;26196;52.302;10.572;2023-05-29T18:25:03;101335.81;;;22.02;39.55
40490;BME280;26196;52.302;10.572;2023-05-29T18:29:04;101327.81;;;22.02;39.15
40490;BME280;26196;52.302;10.572;2023-05-29T18:33:04;101329.84;;;21.99;39.05
40490;BME280;26196;52.302;10.572;2023-05-29T18:37:04;101335.09;;;22.00;39.09
40490;BME280;26196;52.302;10.572;2023-05-29T18:41:05;101323.75;;;21.97;38.37
40490;BME280;26196;52.302;10.572;2023-05-29T18:45:06;101338.59;;;22.01;38.83
40490;BME280;26196;52.302;10.572;2023-05-29T18:49:07;101331.66;;;21.98;38.20
40490;BME280;26196;52.302;10.572;2023-05-29T18:53:07;101327.56;;;21.93;38.43
40490;BME280;26196;52.302;10.572;2023-05-29T18:57:08;101335.25;;;21.97;38.25
40490;BME280;26196;52.302;10.572;2023-05-29T19:01:09;101342.41;;;21.97;38.11
40490;BME280;26196;52.302;10.572;2023-05-29T19:05:09;101337.06;;;21.97;38.02
40490;BME280;26196;52.302;10.572;2023-05-29T19:09:10;101340.78;;;21.94;38.11
40490;BME280;26196;52.302;10.572;2023-05-29T19:13:10;101333.06;;;21.90;37.83
40490;BME280;26196;52.302;10.572;2023-05-29T19:17:11;101350.66;;;21.92;37.87
40490;BME280;26196;52.302;10.572;2023-05-29T19:21:11;101350.78;;;21.91;37.78
40490;BME280;26196;52.302;10.572;2023-05-29T19:25:11;101357.03;;;21.90;37.57
40490;BME280;26196;52.302;10.572;2023-05-29T19:29:12;101360.88;;;21.85;37.68
40490;BME280;26196;52.302;10.572;2023-05-29T19:33:12;101363.41;;;21.87;37.60
40490;BME280;26196;52.302;10.572;2023-05-29T19:37:13;101355.81;;;21.81;37.48
40490;BME280;26196;52.302;10.572;2023-05-29T19:41:14;101357.69;;;21.79;37.21
40490;BME280;26196;52.302;10.572;2023-05-29T19:45:14;101372.56;;;21.83;37.35
40490;BME280;26196;52.302;10.572;2023-05-29T19:49:15;101370.09;;;21.80;37.21
40490;BME280;26196;52.302;10.572;2023-05-29T19:53:16;101367.50;;;21.78;36.97
40490;BME280;26196;52.302;10.572;2023-05-29T19:57:16;101368.66;;;21.74;36.68
40490;BME280;26196;52.302;10.572;2023-05-29T20:01:17;101381.22;;;21.72;37.01
40490;BME280;26196;52.302;10.572;2023-05-29T20:05:17;101387.41;;;21.73;37.00
40490;BME280;26196;52.302;10.572;2023-05-29T20:09:17;101376.22;;;21.66;36.88
40490;BME280;26196;52.302;10.572;2023-05-29T20:13:18;101394.63;;;21.71;36.86
40490;BME280;26196;52.302;10.572;2023-05-29T20:17:19;101392.16;;;21.68;36.86
40490;BME280;26196;52.302;10.572;2023-05-29T20:21:21;101395.00;;;21.65;37.02
40490;BME280;26196;52.302;10.572;2023-05-29T20:25:21;101390.13;;;21.57;37.07
40490;BME280;26196;52.302;10.572;2023-05-29T20:29:23;101403.44;;;21.57;36.90
40490;BME280;26196;52.302;10.572;2023-05-29T20:33:23;101402.75;;;21.53;36.57
40490;BME280;26196;52.302;10.572;2023-05-29T20:37:24;101398.47;;;21.51;36.54
40490;BME280;26196;52.302;10.572;2023-05-29T20:41:24;101402.25;;;21.47;36.43
40490;BME280;26196;52.302;10.572;2023-05-29T20:45:25;101407.06;;;21.40;36.58
40490;BME280;26196;52.302;10.572;2023-05-29T20:49:25;101422.22;;;21.39;36.51
40490;BME280;26196;52.302;10.572;2023-05-29T20:53:26;101416.19;;;21.36;36.46
40490;BME280;26196;52.302;10.572;2023-05-29T20:57:26;101421.69;;;21.33;36.58
40490;BME280;26196;52.302;10.572;2023-05-29T21:01:27;101415.66;;;21.29;36.64
40490;BME280;26196;52.302;10.572;2023-05-29T21:05:27;101421.16;;;21.26;36.36
40490;BME280;26196;52.302;10.572;2023-05-29T21:09:28;101422.97;;;21.26;35.26
40490;BME280;26196;52.302;10.572;2023-05-29T21:13:29;101425.81;;;21.23;36.20
40490;BME280;26196;52.302;10.572;2023-05-29T21:17:29;101437.69;;;21.17;36.15
40490;BME280;26196;52.302;10.572;2023-05-29T21:21:30;101441.97;;;21.19;35.99
40490;BME280;26196;52.302;10.572;2023-05-29T21:25:30;101441.38;;;21.14;35.15
40490;BME280;26196;52.302;10.572;2023-05-29T21:29:31;101436.97;;;21.13;35.39